createdAt,value
2022-12-18T00:00:02.106Z,-3.9
2022-12-18T00:01:01.917Z,-3.8
2022-12-18T00:02:01.829Z,-3.8
2022-12-18T00:03:02.075Z,-3.8
2022-12-18T00:04:02.201Z,-3.8
2022-12-18T00:05:01.410Z,-3.8
2022-12-18T00:06:01.453Z,-3.9
2022-12-18T00:07:01.341Z,-3.8
2022-12-18T00:08:02.374Z,-3.7
2022-12-18T00:09:01.971Z,-3.8
2022-12-18T00:10:01.990Z,-3.7
2022-12-18T00:11:01.774Z,-3.8
2022-12-18T00:13:02.671Z,-3.8
2022-12-18T00:14:01.992Z,-3.8
2022-12-18T00:15:01.829Z,-3.7
2022-12-18T00:16:01.813Z,-3.7
2022-12-18T00:17:01.891Z,-3.8
2022-12-18T00:18:01.956Z,-3.8
2022-12-18T00:19:01.813Z,-3.7
2022-12-18T00:20:01.680Z,-3.8
2022-12-18T00:21:01.752Z,-3.7
2022-12-18T00:22:01.527Z,-3.8
2022-12-18T00:23:01.562Z,-3.7
2022-12-18T00:24:01.400Z,-3.8
2022-12-18T00:25:01.425Z,-3.9
2022-12-18T00:26:02.378Z,-3.8
2022-12-18T00:27:02.202Z,-3.8
2022-12-18T00:28:02.240Z,-3.8
2022-12-18T00:29:02.097Z,-3.8
2022-12-18T00:30:02.034Z,-3.7
2022-12-18T00:31:02.162Z,-3.8
2022-12-18T00:32:01.860Z,-3.8
2022-12-18T00:33:01.965Z,-3.7
2022-12-18T00:34:02.009Z,-3.6
2022-12-18T00:35:01.851Z,-3.7
2022-12-18T00:36:01.752Z,-3.6
2022-12-18T00:37:01.757Z,-3.6
2022-12-18T00:38:01.553Z,-3.6
2022-12-18T00:39:01.526Z,-3.8
2022-12-18T00:40:01.421Z,-3.8
2022-12-18T00:41:01.451Z,-3.6
2022-12-18T00:42:01.517Z,-3.7
2022-12-18T00:43:01.521Z,-3.8
2022-12-18T00:44:01.336Z,-3.6
2022-12-18T00:45:04.439Z,-3.6
2022-12-18T00:46:01.717Z,-3.6
2022-12-18T00:47:02.252Z,-3.6
2022-12-18T00:48:02.294Z,-3.7
2022-12-18T00:49:02.144Z,-3.6
2022-12-18T00:50:02.233Z,-3.6
2022-12-18T00:51:01.950Z,-3.7
2022-12-18T00:52:02.004Z,-3.7
2022-12-18T00:53:01.856Z,-3.6
2022-12-18T00:54:01.751Z,-3.7
2022-12-18T00:55:05.932Z,-3.7
2022-12-18T00:56:01.357Z,-3.7
2022-12-18T00:57:02.364Z,-3.7
2022-12-18T00:58:02.242Z,-3.6
2022-12-18T00:59:02.239Z,-3.6
2022-12-18T01:00:02.115Z,-3.5
2022-12-18T01:01:02.143Z,-3.5
2022-12-18T01:02:02.246Z,-3.6
2022-12-18T01:03:02.472Z,-3.5
2022-12-18T01:04:01.401Z,-3.5
2022-12-18T01:05:01.431Z,-3.5
2022-12-18T01:06:02.326Z,-3.6
2022-12-18T01:07:02.219Z,-3.7
2022-12-18T01:08:02.256Z,-3.5
2022-12-18T01:09:02.180Z,-3.5
2022-12-18T01:10:02.042Z,-3.5
2022-12-18T01:11:01.917Z,-3.6
2022-12-18T01:12:01.872Z,-3.5
2022-12-18T01:13:01.880Z,-3.5
2022-12-18T01:14:01.759Z,-3.7
2022-12-18T01:15:01.787Z,-3.6
2022-12-18T01:16:01.644Z,-3.6
2022-12-18T01:17:01.622Z,-3.6
2022-12-18T01:18:01.659Z,-3.6
2022-12-18T01:19:01.467Z,-3.6
2022-12-18T01:20:01.419Z,-3.6
2022-12-18T01:21:01.356Z,-3.6
2022-12-18T01:22:02.383Z,-3.7
2022-12-18T01:23:02.217Z,-3.6
2022-12-18T01:24:02.276Z,-3.6
2022-12-18T01:25:02.122Z,-3.6
2022-12-18T01:26:02.203Z,-3.6
2022-12-18T01:27:02.117Z,-3.5
2022-12-18T01:28:02.150Z,-3.6
2022-12-18T01:29:01.996Z,-3.8
2022-12-18T01:30:01.943Z,-3.8
2022-12-18T01:31:01.942Z,-3.7
2022-12-18T01:32:01.747Z,-3.6
2022-12-18T01:33:01.648Z,-3.6
2022-12-18T01:34:01.705Z,-3.6
2022-12-18T01:35:01.569Z,-3.6
2022-12-18T01:36:01.542Z,-3.6
2022-12-18T01:37:01.388Z,-3.5
2022-12-18T01:38:01.398Z,-3.5
2022-12-18T01:39:02.316Z,-3.6
2022-12-18T01:40:02.154Z,-3.7
2022-12-18T01:41:02.235Z,-3.7
2022-12-18T01:42:02.077Z,-3.6
2022-12-18T01:43:02.016Z,-3.5
2022-12-18T01:44:01.873Z,-3.6
2022-12-18T01:45:01.829Z,-3.8
2022-12-18T01:46:01.922Z,-3.7
2022-12-18T01:47:01.653Z,-3.7
2022-12-18T01:48:01.675Z,-3.7
2022-12-18T01:49:01.513Z,-3.8
2022-12-18T01:50:01.486Z,-3.7
2022-12-18T01:51:01.349Z,-3.7
2022-12-18T01:52:02.395Z,-3.6
2022-12-18T01:53:02.338Z,-3.7
2022-12-18T01:54:02.207Z,-3.8
2022-12-18T01:55:02.111Z,-3.6
2022-12-18T01:56:02.139Z,-3.6
2022-12-18T01:57:01.959Z,-3.5
2022-12-18T01:58:01.857Z,-3.6
2022-12-18T01:59:01.802Z,-3.6
2022-12-18T02:00:01.621Z,-3.8
2022-12-18T02:01:01.774Z,-3.9
2022-12-18T02:02:01.940Z,-3.8
2022-12-18T02:03:02.355Z,-3.8
2022-12-18T02:04:02.376Z,-3.8
2022-12-18T02:05:02.219Z,-3.6
2022-12-18T02:06:02.281Z,-3.6
2022-12-18T02:07:02.096Z,-3.7
2022-12-18T02:08:02.076Z,-3.7
2022-12-18T02:09:01.382Z,-3.7
2022-12-18T02:10:01.442Z,-3.7
2022-12-18T02:11:02.394Z,-3.7
2022-12-18T02:12:02.227Z,-3.7
2022-12-18T02:13:02.283Z,-3.7
2022-12-18T02:14:02.126Z,-3.7
2022-12-18T02:15:01.967Z,-3.7
2022-12-18T02:16:01.948Z,-3.7
2022-12-18T02:17:01.721Z,-3.8
2022-12-18T02:18:01.793Z,-3.8
2022-12-18T02:19:01.796Z,-3.9
2022-12-18T02:20:01.574Z,-3.8
2022-12-18T02:21:01.834Z,-3.8
2022-12-18T02:22:01.715Z,-3.7
2022-12-18T02:23:01.634Z,-3.8
2022-12-18T02:24:01.654Z,-3.7
2022-12-18T02:25:01.431Z,-3.7
2022-12-18T02:26:01.470Z,-3.7
2022-12-18T02:27:02.401Z,-3.7
2022-12-18T02:28:02.220Z,-3.6
2022-12-18T02:29:02.280Z,-3.7
2022-12-18T02:30:02.108Z,-3.8
2022-12-18T02:31:02.194Z,-3.7
2022-12-18T02:32:02.073Z,-3.8
2022-12-18T02:33:02.019Z,-3.4
2022-12-18T02:34:01.996Z,-3.5
2022-12-18T02:35:01.863Z,-3.6
2022-12-18T02:36:01.810Z,-3.6
2022-12-18T02:37:01.868Z,-3.7
2022-12-18T02:38:01.707Z,-3.8
2022-12-18T02:39:01.762Z,-3.7
2022-12-18T02:40:01.604Z,-3.8
2022-12-18T02:41:01.593Z,-3.8
2022-12-18T02:42:01.411Z,-3.8
2022-12-18T02:43:01.457Z,-3.8
2022-12-18T02:44:01.324Z,-3.8
2022-12-18T02:45:02.393Z,-3.9
2022-12-18T02:46:02.284Z,-3.8
2022-12-18T02:47:02.230Z,-3.8
2022-12-18T02:48:02.345Z,-3.8
2022-12-18T02:49:02.102Z,-3.7
2022-12-18T02:50:02.138Z,-3.7
2022-12-18T02:51:02.013Z,-3.7
2022-12-18T02:52:01.916Z,-3.9
2022-12-18T02:53:01.976Z,-3.7
2022-12-18T02:54:01.826Z,-3.7
2022-12-18T02:55:01.697Z,-3.7
2022-12-18T02:56:01.679Z,-3.7
2022-12-18T02:57:01.508Z,-3.7
2022-12-18T02:58:01.496Z,-3.7
2022-12-18T02:59:01.339Z,-3.7
2022-12-18T03:00:02.393Z,-3.7
2022-12-18T03:01:02.320Z,-3.8
2022-12-18T03:02:02.422Z,-3.7
2022-12-18T03:03:01.991Z,-3.7
2022-12-18T03:04:02.244Z,-3.8
2022-12-18T03:05:02.114Z,-3.8
2022-12-18T03:06:02.310Z,-3.8
2022-12-18T03:07:02.050Z,-3.7
2022-12-18T03:08:02.071Z,-3.8
2022-12-18T03:09:01.858Z,-3.7
2022-12-18T03:10:01.777Z,-3.8
2022-12-18T03:11:01.780Z,-3.8
2022-12-18T03:12:01.670Z,-3.7
2022-12-18T03:13:01.649Z,-3.7
2022-12-18T03:14:01.554Z,-3.7
2022-12-18T03:15:01.497Z,-3.8
2022-12-18T03:16:01.367Z,-3.8
2022-12-18T03:17:02.299Z,-3.9
2022-12-18T03:18:02.310Z,-3.8
2022-12-18T03:19:02.195Z,-3.8
2022-12-18T03:20:02.203Z,-3.8
2022-12-18T03:21:02.013Z,-3.9
2022-12-18T03:22:02.040Z,-4
2022-12-18T03:23:01.874Z,-4
2022-12-18T03:24:01.760Z,-4
2022-12-18T03:25:01.816Z,-3.9
2022-12-18T03:26:05.945Z,-3.9
2022-12-18T03:27:01.360Z,-3.9
2022-12-18T03:28:02.386Z,-4
2022-12-18T03:29:02.243Z,-3.9
2022-12-18T03:30:02.322Z,-3.9
2022-12-18T03:31:02.184Z,-3.9
2022-12-18T03:32:02.292Z,-3.9
2022-12-18T03:33:02.323Z,-3.8
2022-12-18T03:34:02.191Z,-3.9
2022-12-18T03:35:02.249Z,-3.8
2022-12-18T03:36:02.085Z,-3.9
2022-12-18T03:37:02.212Z,-3.8
2022-12-18T03:38:01.921Z,-3.8
2022-12-18T03:39:01.983Z,-3.8
2022-12-18T03:40:01.829Z,-3.8
2022-12-18T03:41:01.786Z,-3.9
2022-12-18T03:42:01.839Z,-3.8
2022-12-18T03:43:01.611Z,-3.9
2022-12-18T03:44:01.646Z,-3.9
2022-12-18T03:45:01.450Z,-3.9
2022-12-18T03:46:01.481Z,-3.9
2022-12-18T03:47:02.391Z,-3.9
2022-12-18T03:48:02.226Z,-3.9
2022-12-18T03:49:02.226Z,-3.9
2022-12-18T03:50:02.141Z,-3.9
2022-12-18T03:51:02.191Z,-3.9
2022-12-18T03:52:02.058Z,-3.9
2022-12-18T03:53:02.032Z,-4
2022-12-18T03:54:01.897Z,-3.9
2022-12-18T03:55:01.840Z,-3.9
2022-12-18T03:56:01.976Z,-3.9
2022-12-18T03:57:01.819Z,-3.8
2022-12-18T03:58:01.775Z,-3.8
2022-12-18T03:59:01.832Z,-3.9
2022-12-18T04:00:01.667Z,-3.9
2022-12-18T04:01:01.889Z,-3.9
2022-12-18T04:02:01.529Z,-3.9
2022-12-18T04:03:02.040Z,-3.9
2022-12-18T04:04:01.805Z,-4
2022-12-18T04:05:01.711Z,-4
2022-12-18T04:06:01.703Z,-4
2022-12-18T04:07:01.546Z,-3.9
2022-12-18T04:08:01.521Z,-4
2022-12-18T04:09:01.446Z,-4
2022-12-18T04:10:02.418Z,-3.9
2022-12-18T04:11:02.241Z,-3.9
2022-12-18T04:12:01.787Z,-4.1
2022-12-18T04:13:01.584Z,-4
2022-12-18T04:14:04.733Z,-4
2022-12-18T04:15:02.383Z,-3.9
2022-12-18T04:16:02.267Z,-4
2022-12-18T04:17:01.318Z,-4
2022-12-18T04:18:02.387Z,-4
2022-12-18T04:19:02.234Z,-4
2022-12-18T04:20:02.251Z,-3.9
2022-12-18T04:21:02.092Z,-3.8
2022-12-18T04:22:02.131Z,-3.8
2022-12-18T04:23:01.924Z,-3.9
2022-12-18T04:24:01.850Z,-3.9
2022-12-18T04:25:01.866Z,-3.9
2022-12-18T04:26:01.795Z,-4
2022-12-18T04:27:01.655Z,-3.9
2022-12-18T04:28:01.695Z,-3.9
2022-12-18T04:29:01.516Z,-3.8
2022-12-18T04:30:01.546Z,-3.9
2022-12-18T04:31:01.419Z,-3.9
2022-12-18T04:32:01.342Z,-3.9
2022-12-18T04:33:02.307Z,-3.8
2022-12-18T04:34:02.157Z,-3.9
2022-12-18T04:35:02.188Z,-4.1
2022-12-18T04:36:02.024Z,-3.9
2022-12-18T04:37:02.013Z,-4
2022-12-18T04:38:01.878Z,-4
2022-12-18T04:39:01.808Z,-4
2022-12-18T04:40:01.820Z,-4
2022-12-18T04:41:01.663Z,-4
2022-12-18T04:42:01.869Z,-4
2022-12-18T04:43:01.697Z,-4
2022-12-18T04:44:01.651Z,-4
2022-12-18T04:45:01.668Z,-4
2022-12-18T04:46:01.489Z,-4.1
2022-12-18T04:47:01.569Z,-3.9
2022-12-18T04:48:01.595Z,-3.9
2022-12-18T04:49:01.384Z,-4.1
2022-12-18T04:50:01.403Z,-4.1
2022-12-18T04:51:02.307Z,-4
2022-12-18T04:52:02.193Z,-3.9
2022-12-18T04:53:02.236Z,-3.9
2022-12-18T04:54:02.202Z,-3.9
2022-12-18T04:55:02.254Z,-4
2022-12-18T04:56:02.085Z,-3.9
2022-12-18T04:57:02.130Z,-3.9
2022-12-18T04:58:01.980Z,-4.1
2022-12-18T04:59:01.961Z,-4.1
2022-12-18T05:00:01.970Z,-4
2022-12-18T05:01:01.771Z,-4
2022-12-18T05:02:01.683Z,-4
2022-12-18T05:03:01.847Z,-4.1
2022-12-18T05:04:02.046Z,-4.1
2022-12-18T05:05:02.090Z,-4
2022-12-18T05:06:02.153Z,-4
2022-12-18T05:07:01.995Z,-4.1
2022-12-18T05:08:01.874Z,-4
2022-12-18T05:09:01.851Z,-3.9
2022-12-18T05:10:01.672Z,-3.9
2022-12-18T05:11:01.635Z,-3.9
2022-12-18T05:12:01.448Z,-3.8
2022-12-18T05:13:01.594Z,-3.6
2022-12-18T05:14:01.328Z,-3.8
2022-12-18T05:15:02.386Z,-3.7
2022-12-18T05:16:02.305Z,-3.8
2022-12-18T05:17:01.986Z,-3.7
2022-12-18T05:18:02.049Z,-3.7
2022-12-18T05:19:01.819Z,-3.7
2022-12-18T05:20:01.740Z,-3.7
2022-12-18T05:21:01.787Z,-3.9
2022-12-18T05:22:01.611Z,-4
2022-12-18T05:23:01.783Z,-3.9
2022-12-18T05:24:01.759Z,-3.8
2022-12-18T05:25:01.568Z,-3.8
2022-12-18T05:26:01.530Z,-3.9
2022-12-18T05:27:01.403Z,-3.8
2022-12-18T05:28:01.364Z,-3.6
2022-12-18T05:29:02.312Z,-3.7
2022-12-18T05:30:02.151Z,-3.8
2022-12-18T05:31:02.182Z,-3.9
2022-12-18T05:32:01.901Z,-3.9
2022-12-18T05:33:01.900Z,-3.8
2022-12-18T05:34:01.706Z,-3.9
2022-12-18T05:35:01.790Z,-3.8
2022-12-18T05:36:01.593Z,-3.9
2022-12-18T05:37:01.655Z,-3.9
2022-12-18T05:38:01.508Z,-4
2022-12-18T05:39:01.487Z,-3.9
2022-12-18T05:40:01.325Z,-3.8
2022-12-18T05:41:02.334Z,-3.7
2022-12-18T05:42:02.229Z,-3.7
2022-12-18T05:43:02.282Z,-3.6
2022-12-18T05:44:02.112Z,-3.7
2022-12-18T05:45:02.123Z,-3.5
2022-12-18T05:46:01.978Z,-3.6
2022-12-18T05:47:01.866Z,-3.7
2022-12-18T05:48:01.989Z,-3.7
2022-12-18T05:49:01.872Z,-3.8
2022-12-18T05:50:01.763Z,-3.8
2022-12-18T05:51:01.835Z,-3.9
2022-12-18T05:52:01.629Z,-4.1
2022-12-18T05:53:01.602Z,-3.8
2022-12-18T05:54:01.469Z,-3.7
2022-12-18T05:55:01.411Z,-3.6
2022-12-18T05:56:02.415Z,-3.6
2022-12-18T05:57:02.231Z,-3.5
2022-12-18T05:58:02.274Z,-3.6
2022-12-18T05:59:02.112Z,-3.7
2022-12-18T06:00:01.811Z,-3.7
2022-12-18T06:01:01.812Z,-3.7
2022-12-18T06:02:01.768Z,-3.8
2022-12-18T06:03:01.997Z,-3.8
2022-12-18T06:04:02.198Z,-3.8
2022-12-18T06:05:01.396Z,-3.8
2022-12-18T06:06:01.575Z,-3.8
2022-12-18T06:07:01.349Z,-3.9
2022-12-18T06:08:02.364Z,-4
2022-12-18T06:09:02.191Z,-4
2022-12-18T06:10:02.231Z,-3.8
2022-12-18T06:11:02.057Z,-4
2022-12-18T06:12:02.097Z,-4
2022-12-18T06:13:01.928Z,-3.9
2022-12-18T06:14:01.873Z,-4
2022-12-18T06:15:01.896Z,-4.1
2022-12-18T06:16:01.774Z,-4.1
2022-12-18T06:17:01.713Z,-4.1
2022-12-18T06:18:01.699Z,-4
2022-12-18T06:19:01.498Z,-4
2022-12-18T06:20:01.489Z,-4.1
2022-12-18T06:21:01.321Z,-4.2
2022-12-18T06:22:02.352Z,-4.1
2022-12-18T06:23:02.200Z,-4.2
2022-12-18T06:24:02.242Z,-4.2
2022-12-18T06:25:02.048Z,-4.1
2022-12-18T06:26:02.194Z,-4.1
2022-12-18T06:27:02.097Z,-4.2
2022-12-18T06:28:02.124Z,-4.2
2022-12-18T06:29:01.938Z,-4.2
2022-12-18T06:30:01.790Z,-4.3
2022-12-18T06:31:01.882Z,-4.3
2022-12-18T06:32:01.971Z,-4.3
2022-12-18T06:33:02.054Z,-4.4
2022-12-18T06:34:02.116Z,-4.3
2022-12-18T06:35:02.102Z,-4.3
2022-12-18T06:36:02.026Z,-4.3
2022-12-18T06:37:02.070Z,-4.4
2022-12-18T06:38:01.892Z,-4.3
2022-12-18T06:39:01.868Z,-4.3
2022-12-18T06:40:01.826Z,-4.3
2022-12-18T06:41:01.593Z,-4.2
2022-12-18T06:42:01.531Z,-4.3
2022-12-18T06:43:01.408Z,-4.2
2022-12-18T06:44:01.453Z,-4.3
2022-12-18T06:45:02.389Z,-4.3
2022-12-18T06:46:02.254Z,-4.3
2022-12-18T06:47:01.558Z,-4.3
2022-12-18T06:48:01.499Z,-4.3
2022-12-18T06:49:01.397Z,-4.3
2022-12-18T06:50:01.436Z,-4.3
2022-12-18T06:51:02.383Z,-4.3
2022-12-18T06:52:02.238Z,-4.3
2022-12-18T06:53:02.270Z,-4.3
2022-12-18T06:54:01.472Z,-4.3
2022-12-18T06:55:01.468Z,-4.2
2022-12-18T06:56:06.520Z,-4.2
2022-12-18T06:57:01.590Z,-4.2
2022-12-18T06:58:01.592Z,-4.1
2022-12-18T06:59:01.415Z,-4.3
2022-12-18T07:00:01.687Z,-4.1
2022-12-18T07:01:01.666Z,-4
2022-12-18T07:02:02.377Z,-4.1
2022-12-18T07:03:01.552Z,-4.1
2022-12-18T07:04:01.434Z,-4.1
2022-12-18T07:05:03.721Z,-4.1
2022-12-18T07:06:01.571Z,-4.1
2022-12-18T07:07:01.603Z,-4.2
2022-12-18T07:08:01.440Z,-4.2
2022-12-18T07:09:01.444Z,-4.1
2022-12-18T07:10:02.350Z,-3.9
2022-12-18T07:11:02.218Z,-3.8
2022-12-18T07:12:02.252Z,-4
2022-12-18T07:13:02.113Z,-4.1
2022-12-18T07:14:02.089Z,-4.1
2022-12-18T07:15:02.008Z,-4.2
2022-12-18T07:16:01.920Z,-4.1
2022-12-18T07:17:01.339Z,-4.1
2022-12-18T07:18:01.645Z,-4.1
2022-12-18T07:19:01.506Z,-4
2022-12-18T07:20:01.499Z,-4.1
2022-12-18T07:21:02.010Z,-4
2022-12-18T07:22:01.939Z,-3.8
2022-12-18T07:23:01.858Z,-4
2022-12-18T07:24:01.844Z,-4
2022-12-18T07:25:01.705Z,-4
2022-12-18T07:26:01.766Z,-3.9
2022-12-18T07:27:01.608Z,-3.9
2022-12-18T07:28:01.592Z,-3.9
2022-12-18T07:29:01.382Z,-3.9
2022-12-18T07:30:01.369Z,-3.7
2022-12-18T07:31:02.341Z,-3.8
2022-12-18T07:32:02.014Z,-3.9
2022-12-18T07:33:01.978Z,-3.8
2022-12-18T07:34:01.781Z,-3.8
2022-12-18T07:35:01.708Z,-3.9
2022-12-18T07:36:01.793Z,-3.8
2022-12-18T07:37:01.615Z,-3.6
2022-12-18T07:38:01.607Z,-3.7
2022-12-18T07:39:01.473Z,-3.6
2022-12-18T07:40:01.499Z,-3.6
2022-12-18T07:41:01.328Z,-3.7
2022-12-18T07:42:02.372Z,-3.6
2022-12-18T07:43:02.214Z,-3.3
2022-12-18T07:44:02.216Z,-3.3
2022-12-18T07:45:02.084Z,-3.4
2022-12-18T07:46:02.129Z,-3.3
2022-12-18T07:47:02.116Z,-3.3
2022-12-18T07:48:02.086Z,-3.3
2022-12-18T07:49:02.027Z,-3.3
2022-12-18T07:50:01.911Z,-3.2
2022-12-18T07:51:01.858Z,-3.1
2022-12-18T07:52:01.886Z,-3.1
2022-12-18T07:53:01.668Z,-3.1
2022-12-18T07:54:01.719Z,-3.1
2022-12-18T07:55:01.504Z,-3.1
2022-12-18T07:56:25.831Z,-3.1
2022-12-18T07:57:01.839Z,-3.2
2022-12-18T07:58:01.878Z,-3.1
2022-12-18T07:59:01.950Z,-3.2
2022-12-18T08:00:01.742Z,-2.8
2022-12-18T08:01:02.164Z,-3.1
2022-12-18T08:02:02.083Z,-2.6
2022-12-18T08:03:01.474Z,-2.4
2022-12-18T08:04:01.358Z,-2.1
2022-12-18T08:05:01.425Z,-2.1
2022-12-18T08:06:02.328Z,-1.6
2022-12-18T08:07:02.209Z,-1.2
2022-12-18T08:08:02.257Z,-1
2022-12-18T08:09:02.095Z,-0.7
2022-12-18T08:10:02.127Z,-0.9
2022-12-18T08:11:01.967Z,-0.7
2022-12-18T08:12:01.919Z,-0.8
2022-12-18T08:13:04.994Z,-1
2022-12-18T08:14:02.041Z,-1.1
2022-12-18T08:15:01.989Z,-0.8
2022-12-18T08:16:01.985Z,-0.7
2022-12-18T08:17:01.546Z,-0.5
2022-12-18T08:18:01.494Z,-0.4
2022-12-18T08:19:01.370Z,-0.5
2022-12-18T08:20:01.320Z,-0.3
2022-12-18T08:21:02.319Z,-0.1
2022-12-18T08:22:02.174Z,-0.2
2022-12-18T08:23:02.202Z,0
2022-12-18T08:24:02.022Z,0
2022-12-18T08:25:02.023Z,0.1
2022-12-18T08:26:01.858Z,0.2
2022-12-18T08:27:29.603Z,0.3
2022-12-18T08:28:02.197Z,0.3
2022-12-18T08:29:02.245Z,0.5
2022-12-18T08:30:02.097Z,0.5
2022-12-18T08:31:02.144Z,0.3
2022-12-18T08:32:01.931Z,0.2
2022-12-18T08:33:01.986Z,0.5
2022-12-18T08:34:01.998Z,0.7
2022-12-18T08:35:01.826Z,0.6
2022-12-18T08:36:01.763Z,0.6
2022-12-18T08:37:01.729Z,0.5
2022-12-18T08:38:01.658Z,0.7
2022-12-18T08:39:01.653Z,0.5
2022-12-18T08:40:01.423Z,0.5
2022-12-18T08:41:01.446Z,0.1
2022-12-18T08:42:06.818Z,0.2
2022-12-18T08:43:02.088Z,0
2022-12-18T08:44:02.040Z,-0.3
2022-12-18T08:45:01.273Z,-0.3
2022-12-18T08:46:02.368Z,-0.5
2022-12-18T08:47:02.194Z,-0.5
2022-12-18T08:48:02.245Z,-0.8
2022-12-18T08:49:02.100Z,-0.8
2022-12-18T08:50:01.475Z,-0.8
2022-12-18T08:51:01.494Z,-0.9
2022-12-18T08:52:01.386Z,-0.8
2022-12-18T08:53:01.433Z,-0.6
2022-12-18T08:54:02.385Z,-1
2022-12-18T08:55:01.779Z,-1
2022-12-18T08:56:01.759Z,-1
2022-12-18T08:57:01.621Z,-1
2022-12-18T08:58:01.673Z,-0.9
2022-12-18T08:59:01.519Z,-0.8
2022-12-18T09:00:01.531Z,-0.7
2022-12-18T09:01:01.373Z,-0.7
2022-12-18T09:02:01.901Z,-0.7
2022-12-18T09:03:01.581Z,-0.8
2022-12-18T09:04:01.695Z,-0.8
2022-12-18T09:05:01.677Z,-1.1
2022-12-18T09:06:01.511Z,-1.2
2022-12-18T09:07:01.531Z,-1.3
2022-12-18T09:08:01.360Z,-1.3
2022-12-18T09:09:02.360Z,-1.3
2022-12-18T09:10:02.077Z,-1.4
2022-12-18T09:11:02.153Z,-1.2
2022-12-18T09:12:01.972Z,-1
2022-12-18T09:13:01.898Z,-1.5
2022-12-18T09:14:01.951Z,-1.1
2022-12-18T09:15:01.794Z,-1.2
2022-12-18T09:16:01.678Z,-1.6
2022-12-18T09:17:01.598Z,-1.6
2022-12-18T09:18:01.600Z,-1.3
2022-12-18T09:19:01.456Z,-1.5
2022-12-18T09:20:01.480Z,-1.5
2022-12-18T09:21:01.333Z,-1.4
2022-12-18T09:22:02.350Z,-1.5
2022-12-18T09:23:02.218Z,-1.2
2022-12-18T09:24:02.252Z,-1.4
2022-12-18T09:25:02.095Z,-1.2
2022-12-18T09:26:02.067Z,-1.2
2022-12-18T09:27:01.959Z,-1.2
2022-12-18T09:28:01.932Z,-1.4
2022-12-18T09:29:01.937Z,-1.4
2022-12-18T09:30:01.928Z,-1.4
2022-12-18T09:31:01.934Z,-1.2
2022-12-18T09:32:01.934Z,-1.2
2022-12-18T09:33:01.921Z,-1.1
2022-12-18T09:34:01.799Z,-0.9
2022-12-18T09:35:01.737Z,-0.7
2022-12-18T09:36:01.712Z,-0.3
2022-12-18T09:37:01.599Z,-0.4
2022-12-18T09:38:01.625Z,-0.1
2022-12-18T09:39:05.083Z,0.3
2022-12-18T09:40:01.585Z,1.1
2022-12-18T09:41:01.581Z,0.7
2022-12-18T09:42:01.380Z,0.5
2022-12-18T09:43:01.434Z,-0.1
2022-12-18T09:44:02.387Z,0.2
2022-12-18T09:45:02.221Z,0.4
2022-12-18T09:46:02.276Z,0.3
2022-12-18T09:47:01.958Z,0.4
2022-12-18T09:48:01.950Z,0.6
2022-12-18T09:49:01.377Z,0.9
2022-12-18T09:50:01.461Z,0.9
2022-12-18T09:51:01.326Z,1.6
2022-12-18T09:52:02.322Z,2
2022-12-18T09:53:02.156Z,2.4
2022-12-18T09:54:02.150Z,2.4
2022-12-18T09:55:02.006Z,2.9
2022-12-18T09:56:02.038Z,3
2022-12-18T09:57:02.099Z,3
2022-12-18T09:58:01.921Z,2.5
2022-12-18T09:59:01.973Z,2.6
2022-12-18T10:00:01.791Z,2.9
2022-12-18T10:01:01.688Z,3.2
2022-12-18T10:02:01.802Z,3
2022-12-18T10:03:01.919Z,2.8
2022-12-18T10:04:02.233Z,3
2022-12-18T10:05:02.163Z,2.8
2022-12-18T10:06:02.212Z,2.7
2022-12-18T10:07:07.362Z,2.7
2022-12-18T10:08:02.126Z,2.7
2022-12-18T10:09:02.173Z,2.6
2022-12-18T10:10:02.030Z,2.7
2022-12-18T10:11:01.979Z,2.4
2022-12-18T10:12:01.912Z,2
2022-12-18T10:13:04.652Z,1.5
2022-12-18T10:14:01.752Z,1.1
2022-12-18T10:15:01.795Z,1.1
2022-12-18T10:16:01.660Z,0.9
2022-12-18T10:17:01.596Z,0.8
2022-12-18T10:18:01.605Z,0.8
2022-12-18T10:19:01.419Z,0.4
2022-12-18T10:20:01.398Z,0.3
2022-12-18T10:21:02.344Z,-0.2
2022-12-18T10:22:02.251Z,0.1
2022-12-18T10:23:02.301Z,0.3
2022-12-18T10:24:02.139Z,0.2
2022-12-18T10:25:02.180Z,0.3
2022-12-18T10:26:02.012Z,0.3
2022-12-18T10:27:02.063Z,0.5
2022-12-18T10:28:01.923Z,0.5
2022-12-18T10:29:05.420Z,0.1
2022-12-18T10:30:01.464Z,0.1
2022-12-18T10:31:01.497Z,0.2
2022-12-18T10:32:01.357Z,0.4
2022-12-18T10:33:02.375Z,0.3
2022-12-18T10:34:02.244Z,0.3
2022-12-18T10:35:02.251Z,0.2
2022-12-18T10:36:02.089Z,0.4
2022-12-18T10:37:02.136Z,0.5
2022-12-18T10:38:01.914Z,0.5
2022-12-18T10:39:02.033Z,0.7
2022-12-18T10:40:02.068Z,0.8
2022-12-18T10:41:01.896Z,0.5
2022-12-18T10:42:01.840Z,0.2
2022-12-18T10:43:01.819Z,0.2
2022-12-18T10:44:01.650Z,0.6
2022-12-18T10:45:01.635Z,0.6
2022-12-18T10:46:01.516Z,0.5
2022-12-18T10:47:01.371Z,0.8
2022-12-18T10:48:01.407Z,0.7
2022-12-18T10:49:02.363Z,0.7
2022-12-18T10:50:02.209Z,0.5
2022-12-18T10:51:10.656Z,0.5
2022-12-18T10:52:01.443Z,0.6
2022-12-18T10:53:01.476Z,0.5
2022-12-18T10:54:01.326Z,0.6
2022-12-18T10:55:01.696Z,0.3
2022-12-18T10:56:01.758Z,0.3
2022-12-18T10:57:01.678Z,0.2
2022-12-18T10:58:01.572Z,0.4
2022-12-18T10:59:01.388Z,0.5
2022-12-18T11:00:01.452Z,0.5
2022-12-18T11:01:01.326Z,0.5
2022-12-18T11:02:02.323Z,0.3
2022-12-18T11:03:01.610Z,0.3
2022-12-18T11:04:02.782Z,0.4
2022-12-18T11:05:01.875Z,0.7
2022-12-18T11:06:01.908Z,1.1
2022-12-18T11:07:01.763Z,1.1
2022-12-18T11:08:01.809Z,1.4
2022-12-18T11:09:01.580Z,1.6
2022-12-18T11:10:01.622Z,1.5
2022-12-18T11:11:01.397Z,1.5
2022-12-18T11:12:01.445Z,1.6
2022-12-18T11:13:02.377Z,1.6
2022-12-18T11:14:01.757Z,1.4
2022-12-18T11:15:01.789Z,1.3
2022-12-18T11:16:01.641Z,1.2
2022-12-18T11:17:26.037Z,0.9
2022-12-18T11:18:01.649Z,0.4
2022-12-18T11:19:01.913Z,0
2022-12-18T11:20:01.753Z,0
2022-12-18T11:21:01.701Z,-0.1
2022-12-18T11:22:01.733Z,-0.1
2022-12-18T11:23:01.526Z,0
2022-12-18T11:24:02.088Z,-0.3
2022-12-18T11:25:30.606Z,-0.2
2022-12-18T11:26:02.026Z,-0.2
2022-12-18T11:27:01.974Z,0
2022-12-18T11:28:01.996Z,0.1
2022-12-18T11:29:01.841Z,0.1
2022-12-18T11:30:01.780Z,0.1
2022-12-18T11:31:01.817Z,0.3
2022-12-18T11:32:01.563Z,0.3
2022-12-18T11:33:01.619Z,0.5
2022-12-18T11:34:27.266Z,0.6
2022-12-18T11:35:02.043Z,0.3
2022-12-18T11:36:02.002Z,0.3
2022-12-18T11:37:01.821Z,0.1
2022-12-18T11:38:01.973Z,0.1
2022-12-18T11:39:01.885Z,0.2
2022-12-18T11:40:01.757Z,0.6
2022-12-18T11:41:01.708Z,0.8
2022-12-18T11:42:01.609Z,0.8
2022-12-18T11:43:01.619Z,1.1
2022-12-18T11:44:01.855Z,1.4
2022-12-18T11:45:01.747Z,1
2022-12-18T11:46:01.841Z,0.8
2022-12-18T11:47:01.804Z,0.7
2022-12-18T11:48:01.759Z,0.6
2022-12-18T11:49:01.825Z,0.6
2022-12-18T11:50:01.642Z,0.5
2022-12-18T11:51:01.630Z,0.9
2022-12-18T11:52:01.427Z,1.3
2022-12-18T11:53:05.798Z,2
2022-12-18T11:54:02.293Z,2.2
2022-12-18T11:55:02.176Z,2.6
2022-12-18T11:56:02.208Z,3
2022-12-18T11:57:02.031Z,2.8
2022-12-18T11:58:02.015Z,3.1
2022-12-18T11:59:01.886Z,3.4
2022-12-18T12:00:01.851Z,3
2022-12-18T12:01:01.809Z,2.8
2022-12-18T12:02:01.551Z,2.8
2022-12-18T12:03:02.142Z,2.8
2022-12-18T12:04:02.208Z,2.1
2022-12-18T12:05:02.042Z,1.9
2022-12-18T12:06:01.962Z,1.8
2022-12-18T12:07:03.393Z,1.7
2022-12-18T12:08:01.329Z,1.6
2022-12-18T12:09:02.379Z,1.4
2022-12-18T12:10:02.196Z,1.4
2022-12-18T12:11:02.256Z,1.4
2022-12-18T12:12:02.096Z,1.3
2022-12-18T12:13:02.064Z,1.3
2022-12-18T12:14:01.962Z,1.4
2022-12-18T12:15:01.926Z,1.6
2022-12-18T12:16:01.940Z,1.7
2022-12-18T12:17:01.808Z,2.3
2022-12-18T12:18:02.102Z,2
2022-12-18T12:19:02.064Z,1.7
2022-12-18T12:20:02.079Z,1.6
2022-12-18T12:21:01.967Z,1.8
2022-12-18T12:22:01.852Z,1.8
2022-12-18T12:23:01.910Z,2.1
2022-12-18T12:24:01.756Z,2.1
2022-12-18T12:25:01.928Z,1.9
2022-12-18T12:26:01.975Z,1.8
2022-12-18T12:27:01.815Z,1.8
2022-12-18T12:28:01.697Z,1.7
2022-12-18T12:29:01.685Z,1.8
2022-12-18T12:30:01.993Z,2.4
2022-12-18T12:31:01.899Z,2.1
2022-12-18T12:32:01.805Z,2.2
2022-12-18T12:33:01.814Z,2.2
2022-12-18T12:34:01.639Z,2.4
2022-12-18T12:35:04.830Z,3
2022-12-18T12:36:01.542Z,2.9
2022-12-18T12:37:01.529Z,3.2
2022-12-18T12:38:01.360Z,3.6
2022-12-18T12:39:01.368Z,3.7
2022-12-18T12:40:07.435Z,3.1
2022-12-18T12:41:03.326Z,2.7
2022-12-18T12:42:01.752Z,2.8
2022-12-18T12:43:01.887Z,3.3
2022-12-18T12:44:01.981Z,3.2
2022-12-18T12:45:01.894Z,3
2022-12-18T12:46:02.343Z,3.2
2022-12-18T12:47:02.082Z,3.5
2022-12-18T12:48:02.134Z,3.7
2022-12-18T12:49:02.030Z,3.4
2022-12-18T12:50:01.975Z,2.9
2022-12-18T12:51:01.315Z,3.4
2022-12-18T12:52:01.615Z,3.2
2022-12-18T12:53:01.973Z,3.8
2022-12-18T12:54:02.229Z,3.8
2022-12-18T12:55:01.708Z,3.8
2022-12-18T12:56:01.659Z,3
2022-12-18T12:57:01.761Z,2.9
2022-12-18T12:58:01.830Z,2.5
2022-12-18T12:59:01.870Z,2.2
2022-12-18T13:00:01.714Z,2.7
2022-12-18T13:01:01.988Z,2.8
2022-12-18T13:02:02.078Z,2.3
2022-12-18T13:03:02.100Z,2.5
2022-12-18T13:04:02.305Z,2.2
2022-12-18T13:05:01.702Z,2.1
2022-12-18T13:06:01.692Z,2
2022-12-18T13:07:01.369Z,2.3
2022-12-18T13:08:01.452Z,2.2
2022-12-18T13:09:01.529Z,2.1
2022-12-18T13:10:01.544Z,2.2
2022-12-18T13:11:01.774Z,2.5
2022-12-18T13:12:02.284Z,3
2022-12-18T13:13:02.323Z,2.6
2022-12-18T13:14:02.261Z,2.4
2022-12-18T13:15:02.373Z,3
2022-12-18T13:16:01.779Z,3.2
2022-12-18T13:17:01.635Z,2.8
2022-12-18T13:18:01.807Z,2.9
2022-12-18T13:19:01.683Z,3.2
2022-12-18T13:20:01.700Z,3.4
2022-12-18T13:21:03.498Z,2.6
2022-12-18T13:22:01.638Z,2.3
2022-12-18T13:23:01.615Z,3
2022-12-18T13:24:01.471Z,3.3
2022-12-18T13:25:02.561Z,3.5
2022-12-18T13:26:01.542Z,3.4
2022-12-18T13:27:01.433Z,2.8
2022-12-18T13:28:01.459Z,2.6
2022-12-18T13:29:02.391Z,2.5
2022-12-18T13:30:02.270Z,2.4
2022-12-18T13:31:02.294Z,2.3
2022-12-18T13:32:01.959Z,2.6
2022-12-18T13:33:02.009Z,2.6